Toledo, Spain

8:22 PM CET en Febrero 13, 2016 (GMT +0100)
Guadamur | | Change Station
CLOSE
Current Station
Estación meteorológica personal
Location: Guadamur, CASTILLA-LA MANCHA
Altura: 2133 ft
Estaciones meteorológicas cercanas

Alt 2133 ft 39.81 °N, 4.14 °W | Updated 1 minute ago

Light Rain
Lluvia débil
56.7 ° F
Sensación térmica 56.7 ° F
N
5.4
Viento Variable Viento desde Norte
Gusts 9.4 mph

Hoy
Alta -- | Baja -- ° F
--% Posibilidad de precipitaciones
Ayer
Alta -- | Baja -- ° F
Precip. -- pul
Presión 29.74 pul
Visibilidad 3.1 Millas
Nubes Muy nublado 1100 ft
Muy nublado 1900 ft
Nublado 2600 ft
Punto de rocío 53 ° F
Humedad 87%
Precipitaciones 0.00 pul
Espesor de la nieve No disponible.
8:12 AM 6:49 PM
Creciente, 33% visible
METAR LEGT 131900Z 24020G30KT 5000 -RA BKN011 BKN019 OVC026 13/12 Q1007
Presión 29.74 pul
Visibilidad 3.1 Millas
Nubes Muy nublado 1100 ft
Muy nublado 1900 ft
Nublado 2600 ft
Punto de rocío 53 ° F
Humedad 87%
Precipitaciones 0.00 pul
Espesor de la nieve No disponible.
8:12 AM 6:49 PM
Creciente, 33% visible
METAR LEGT 131900Z 24020G30KT 5000 -RA BKN011 BKN019 OVC026 13/12 Q1007

10-Day Weather Forecast

Almanac

Astronomía

Feb. 13, 2016 Salida Puesta
Hora real
Crepúsculo civil
Crepúsculo náutico
Crepúsculo astronómico
Luna
Horas de luz
Horas de luz
Tomorrow will be .
, % of the Moon is Illuminated

Extremos de hoy

Máximos del país Bajas del país

Community

WunderPhotos

Upload Photos

1,892,642 ¡fotos cargadas!

WunderBlog® & News

Nearby

Calidad del aire

  Calidad del aire Índice AQ Contaminante
Not available.

Grosos de nieve

Estación Profundido Altura

Actividad de terremotos

Ciudad Distance Mag. Tiempo y dato
Magnitud mínima muestra es 2,5.

Temperaturas de aguas costeras

Lugar Temperatura

Stations

Estaciones meteorológicas cercanas

Ubicación de la estación Temp. Vientos helados Punto de rocío Humedad Viento Precip. Alt Actualizado Tipo